sensor_id;sensor_type;location;lat;lon;timestamp;P1;durP1;ratioP1;P2;durP2;ratioP2
3747;SDS011;1889;50.058;8.688;2023-07-20T00:01:38;2.33;;;1.93;;
3747;SDS011;1889;50.058;8.688;2023-07-20T00:04:14;2.67;;;2.13;;
3747;SDS011;1889;50.058;8.688;2023-07-20T00:06:46;2.80;;;1.97;;
3747;SDS011;1889;50.058;8.688;2023-07-20T00:09:16;3.20;;;1.80;;
3747;SDS011;1889;50.058;8.688;2023-07-20T00:11:48;2.13;;;1.93;;
3747;SDS011;1889;50.058;8.688;2023-07-20T00:14:26;3.93;;;2.17;;
3747;SDS011;1889;50.058;8.688;2023-07-20T00:16:59;4.50;;;2.37;;
3747;SDS011;1889;50.058;8.688;2023-07-20T00:19:30;4.97;;;2.30;;
3747;SDS011;1889;50.058;8.688;2023-07-20T00:21:59;4.83;;;2.47;;
3747;SDS011;1889;50.058;8.688;2023-07-20T00:24:29;2.67;;;1.90;;
3747;SDS011;1889;50.058;8.688;2023-07-20T00:26:59;4.93;;;2.37;;
3747;SDS011;1889;50.058;8.688;2023-07-20T00:29:30;6.50;;;2.37;;
3747;SDS011;1889;50.058;8.688;2023-07-20T00:32:00;2.30;;;2.03;;
3747;SDS011;1889;50.058;8.688;2023-07-20T00:34:33;4.47;;;2.60;;
3747;SDS011;1889;50.058;8.688;2023-07-20T00:37:03;3.23;;;2.03;;
3747;SDS011;1889;50.058;8.688;2023-07-20T00:39:32;3.60;;;2.47;;
3747;SDS011;1889;50.058;8.688;2023-07-20T00:42:08;3.07;;;2.20;;
3747;SDS011;1889;50.058;8.688;2023-07-20T00:44:37;3.37;;;2.20;;
3747;SDS011;1889;50.058;8.688;2023-07-20T00:47:06;4.07;;;2.13;;
3747;SDS011;1889;50.058;8.688;2023-07-20T00:49:37;3.90;;;2.33;;
3747;SDS011;1889;50.058;8.688;2023-07-20T00:52:08;4.07;;;1.90;;
3747;SDS011;1889;50.058;8.688;2023-07-20T00:54:51;4.23;;;2.27;;
3747;SDS011;1889;50.058;8.688;2023-07-20T00:57:23;2.63;;;2.20;;
3747;SDS011;1889;50.058;8.688;2023-07-20T00:59:53;3.50;;;2.20;;
3747;SDS011;1889;50.058;8.688;2023-07-20T01:02:22;2.63;;;1.97;;
3747;SDS011;1889;50.058;8.688;2023-07-20T01:04:51;4.23;;;2.20;;
3747;SDS011;1889;50.058;8.688;2023-07-20T01:07:25;4.57;;;2.47;;
3747;SDS011;1889;50.058;8.688;2023-07-20T01:10:02;2.83;;;2.30;;
3747;SDS011;1889;50.058;8.688;2023-07-20T01:12:40;3.03;;;2.23;;
3747;SDS011;1889;50.058;8.688;2023-07-20T01:15:10;5.13;;;2.10;;
3747;SDS011;1889;50.058;8.688;2023-07-20T01:17:39;4.83;;;2.47;;
3747;SDS011;1889;50.058;8.688;2023-07-20T01:20:09;3.80;;;1.93;;
3747;SDS011;1889;50.058;8.688;2023-07-20T01:22:47;4.27;;;2.50;;
3747;SDS011;1889;50.058;8.688;2023-07-20T01:31:25;4.53;;;2.17;;
3747;SDS011;1889;50.058;8.688;2023-07-20T01:33:57;2.00;;;1.80;;
3747;SDS011;1889;50.058;8.688;2023-07-20T01:36:30;4.60;;;2.50;;
3747;SDS011;1889;50.058;8.688;2023-07-20T01:39:01;4.30;;;2.23;;
3747;SDS011;1889;50.058;8.688;2023-07-20T01:41:31;3.67;;;2.10;;
3747;SDS011;1889;50.058;8.688;2023-07-20T01:44:03;2.73;;;1.83;;
3747;SDS011;1889;50.058;8.688;2023-07-20T01:46:32;4.50;;;2.23;;
3747;SDS011;1889;50.058;8.688;2023-07-20T01:49:02;4.07;;;2.07;;
3747;SDS011;1889;50.058;8.688;2023-07-20T01:51:31;5.43;;;2.47;;
3747;SDS011;1889;50.058;8.688;2023-07-20T01:54:00;5.03;;;2.30;;
3747;SDS011;1889;50.058;8.688;2023-07-20T01:56:29;3.17;;;2.00;;
3747;SDS011;1889;50.058;8.688;2023-07-20T01:58:58;5.67;;;2.40;;
3747;SDS011;1889;50.058;8.688;2023-07-20T02:01:27;3.00;;;2.27;;
3747;SDS011;1889;50.058;8.688;2023-07-20T02:03:56;4.60;;;2.30;;
3747;SDS011;1889;50.058;8.688;2023-07-20T02:06:25;4.23;;;2.23;;
3747;SDS011;1889;50.058;8.688;2023-07-20T02:08:54;4.47;;;2.43;;
3747;SDS011;1889;50.058;8.688;2023-07-20T02:11:23;3.37;;;1.87;;
3747;SDS011;1889;50.058;8.688;2023-07-20T02:13:52;4.03;;;2.30;;
3747;SDS011;1889;50.058;8.688;2023-07-20T02:16:21;2.47;;;2.17;;
3747;SDS011;1889;50.058;8.688;2023-07-20T02:18:50;4.37;;;2.43;;
3747;SDS011;1889;50.058;8.688;2023-07-20T02:21:20;3.50;;;2.50;;
3747;SDS011;1889;50.058;8.688;2023-07-20T02:23:49;9.70;;;2.67;;
3747;SDS011;1889;50.058;8.688;2023-07-20T02:26:18;5.03;;;2.47;;
3747;SDS011;1889;50.058;8.688;2023-07-20T02:28:47;4.73;;;2.27;;
3747;SDS011;1889;50.058;8.688;2023-07-20T02:31:16;8.37;;;2.80;;
3747;SDS011;1889;50.058;8.688;2023-07-20T02:33:45;4.23;;;2.03;;
3747;SDS011;1889;50.058;8.688;2023-07-20T02:36:14;2.90;;;2.40;;
3747;SDS011;1889;50.058;8.688;2023-07-20T02:38:43;2.33;;;2.13;;
3747;SDS011;1889;50.058;8.688;2023-07-20T02:41:13;3.40;;;2.47;;
3747;SDS011;1889;50.058;8.688;2023-07-20T02:43:42;3.63;;;2.37;;
3747;SDS011;1889;50.058;8.688;2023-07-20T02:46:11;4.10;;;2.60;;
3747;SDS011;1889;50.058;8.688;2023-07-20T02:48:40;4.30;;;2.03;;
3747;SDS011;1889;50.058;8.688;2023-07-20T02:51:09;4.20;;;2.50;;
3747;SDS011;1889;50.058;8.688;2023-07-20T02:53:38;2.97;;;2.30;;
3747;SDS011;1889;50.058;8.688;2023-07-20T02:56:07;2.73;;;2.43;;
3747;SDS011;1889;50.058;8.688;2023-07-20T02:58:39;3.67;;;2.57;;
3747;SDS011;1889;50.058;8.688;2023-07-20T03:01:10;3.23;;;2.50;;
3747;SDS011;1889;50.058;8.688;2023-07-20T03:03:39;4.97;;;2.53;;
3747;SDS011;1889;50.058;8.688;2023-07-20T03:06:09;3.63;;;2.40;;
3747;SDS011;1889;50.058;8.688;2023-07-20T03:08:38;5.13;;;2.27;;
3747;SDS011;1889;50.058;8.688;2023-07-20T03:11:08;4.87;;;2.27;;
3747;SDS011;1889;50.058;8.688;2023-07-20T03:13:37;3.73;;;2.30;;
3747;SDS011;1889;50.058;8.688;2023-07-20T03:16:06;4.50;;;2.43;;
3747;SDS011;1889;50.058;8.688;2023-07-20T03:18:37;2.83;;;2.30;;
3747;SDS011;1889;50.058;8.688;2023-07-20T03:21:07;4.97;;;2.50;;
3747;SDS011;1889;50.058;8.688;2023-07-20T03:23:39;4.00;;;2.62;;
3747;SDS011;1889;50.058;8.688;2023-07-20T03:26:09;3.02;;;2.40;;
3747;SDS011;1889;50.058;8.688;2023-07-20T03:28:38;5.03;;;2.37;;
3747;SDS011;1889;50.058;8.688;2023-07-20T03:31:08;4.28;;;2.40;;
3747;SDS011;1889;50.058;8.688;2023-07-20T03:33:37;6.40;;;2.72;;
3747;SDS011;1889;50.058;8.688;2023-07-20T03:36:06;3.55;;;2.42;;
3747;SDS011;1889;50.058;8.688;2023-07-20T03:38:37;3.02;;;2.58;;
3747;SDS011;1889;50.058;8.688;2023-07-20T03:41:07;3.80;;;2.42;;
3747;SDS011;1889;50.058;8.688;2023-07-20T03:43:36;3.15;;;2.20;;
3747;SDS011;1889;50.058;8.688;2023-07-20T03:46:06;3.98;;;2.83;;
3747;SDS011;1889;50.058;8.688;2023-07-20T03:48:35;3.08;;;2.50;;
3747;SDS011;1889;50.058;8.688;2023-07-20T03:51:04;4.30;;;2.45;;
3747;SDS011;1889;50.058;8.688;2023-07-20T03:53:33;5.93;;;3.00;;
3747;SDS011;1889;50.058;8.688;2023-07-20T03:56:02;4.80;;;2.73;;
3747;SDS011;1889;50.058;8.688;2023-07-20T03:58:32;4.12;;;3.33;;
3747;SDS011;1889;50.058;8.688;2023-07-20T04:01:01;3.70;;;2.63;;
3747;SDS011;1889;50.058;8.688;2023-07-20T04:03:30;3.67;;;2.73;;
3747;SDS011;1889;50.058;8.688;2023-07-20T04:05:59;3.77;;;2.50;;
3747;SDS011;1889;50.058;8.688;2023-07-20T04:08:28;6.27;;;2.47;;
3747;SDS011;1889;50.058;8.688;2023-07-20T04:10:58;5.53;;;2.60;;
3747;SDS011;1889;50.058;8.688;2023-07-20T04:13:31;3.45;;;2.47;;
3747;SDS011;1889;50.058;8.688;2023-07-20T04:16:01;4.67;;;2.50;;
3747;SDS011;1889;50.058;8.688;2023-07-20T04:18:30;3.95;;;2.30;;
3747;SDS011;1889;50.058;8.688;2023-07-20T04:20:59;4.67;;;2.63;;
3747;SDS011;1889;50.058;8.688;2023-07-20T04:23:29;3.02;;;2.72;;
3747;SDS011;1889;50.058;8.688;2023-07-20T04:25:58;5.00;;;2.80;;
3747;SDS011;1889;50.058;8.688;2023-07-20T04:28:27;3.80;;;2.70;;
3747;SDS011;1889;50.058;8.688;2023-07-20T04:31:08;4.70;;;3.10;;
3747;SDS011;1889;50.058;8.688;2023-07-20T04:33:42;5.03;;;2.70;;
3747;SDS011;1889;50.058;8.688;2023-07-20T04:36:12;3.98;;;2.55;;
3747;SDS011;1889;50.058;8.688;2023-07-20T04:38:43;6.00;;;2.35;;
3747;SDS011;1889;50.058;8.688;2023-07-20T04:41:12;3.90;;;2.37;;
3747;SDS011;1889;50.058;8.688;2023-07-20T04:43:42;3.47;;;2.95;;
3747;SDS011;1889;50.058;8.688;2023-07-20T04:46:12;4.35;;;2.70;;
3747;SDS011;1889;50.058;8.688;2023-07-20T04:48:41;5.67;;;3.00;;
3747;SDS011;1889;50.058;8.688;2023-07-20T04:51:10;4.95;;;2.50;;
3747;SDS011;1889;50.058;8.688;2023-07-20T04:53:40;5.08;;;2.72;;
3747;SDS011;1889;50.058;8.688;2023-07-20T04:56:09;4.05;;;2.90;;
3747;SDS011;1889;50.058;8.688;2023-07-20T04:58:38;4.00;;;2.42;;
3747;SDS011;1889;50.058;8.688;2023-07-20T05:01:08;4.50;;;2.15;;
3747;SDS011;1889;50.058;8.688;2023-07-20T05:03:37;3.12;;;2.52;;
3747;SDS011;1889;50.058;8.688;2023-07-20T05:06:06;5.42;;;2.70;;
3747;SDS011;1889;50.058;8.688;2023-07-20T05:08:36;3.83;;;2.67;;
3747;SDS011;1889;50.058;8.688;2023-07-20T05:11:06;2.37;;;2.15;;
3747;SDS011;1889;50.058;8.688;2023-07-20T05:13:36;3.60;;;2.25;;
3747;SDS011;1889;50.058;8.688;2023-07-20T05:16:05;5.97;;;2.40;;
3747;SDS011;1889;50.058;8.688;2023-07-20T05:18:34;3.00;;;2.20;;
3747;SDS011;1889;50.058;8.688;2023-07-20T05:21:05;3.80;;;2.05;;
3747;SDS011;1889;50.058;8.688;2023-07-20T05:23:35;4.13;;;2.27;;
3747;SDS011;1889;50.058;8.688;2023-07-20T05:26:04;4.10;;;2.20;;
3747;SDS011;1889;50.058;8.688;2023-07-20T05:28:34;3.80;;;2.53;;
3747;SDS011;1889;50.058;8.688;2023-07-20T05:31:03;8.13;;;3.13;;
3747;SDS011;1889;50.058;8.688;2023-07-20T05:33:33;3.58;;;2.47;;
3747;SDS011;1889;50.058;8.688;2023-07-20T05:36:02;3.08;;;2.22;;
3747;SDS011;1889;50.058;8.688;2023-07-20T05:38:32;3.45;;;2.87;;
3747;SDS011;1889;50.058;8.688;2023-07-20T05:41:01;3.52;;;2.67;;
3747;SDS011;1889;50.058;8.688;2023-07-20T05:43:31;4.30;;;2.60;;
3747;SDS011;1889;50.058;8.688;2023-07-20T05:46:00;2.70;;;2.10;;
3747;SDS011;1889;50.058;8.688;2023-07-20T05:48:29;4.87;;;2.37;;
3747;SDS011;1889;50.058;8.688;2023-07-20T05:50:59;5.25;;;2.45;;
3747;SDS011;1889;50.058;8.688;2023-07-20T05:53:28;2.95;;;2.20;;
3747;SDS011;1889;50.058;8.688;2023-07-20T05:55:57;3.33;;;2.27;;
3747;SDS011;1889;50.058;8.688;2023-07-20T05:58:26;6.17;;;2.62;;
3747;SDS011;1889;50.058;8.688;2023-07-20T06:00:56;5.67;;;2.55;;
3747;SDS011;1889;50.058;8.688;2023-07-20T06:03:25;4.85;;;2.58;;
3747;SDS011;1889;50.058;8.688;2023-07-20T06:05:58;3.08;;;2.20;;
3747;SDS011;1889;50.058;8.688;2023-07-20T06:08:32;9.57;;;3.57;;
3747;SDS011;1889;50.058;8.688;2023-07-20T06:11:01;4.43;;;2.27;;
3747;SDS011;1889;50.058;8.688;2023-07-20T06:13:30;3.70;;;2.30;;
3747;SDS011;1889;50.058;8.688;2023-07-20T06:15:59;4.63;;;2.77;;
3747;SDS011;1889;50.058;8.688;2023-07-20T06:18:29;3.87;;;2.40;;
3747;SDS011;1889;50.058;8.688;2023-07-20T06:20:58;2.87;;;2.50;;
3747;SDS011;1889;50.058;8.688;2023-07-20T06:23:27;2.30;;;2.03;;
3747;SDS011;1889;50.058;8.688;2023-07-20T06:25:56;4.80;;;3.02;;
3747;SDS011;1889;50.058;8.688;2023-07-20T06:28:25;3.27;;;2.53;;
3747;SDS011;1889;50.058;8.688;2023-07-20T06:31:01;13.03;;;3.25;;
3747;SDS011;1889;50.058;8.688;2023-07-20T06:33:30;3.60;;;2.07;;
3747;SDS011;1889;50.058;8.688;2023-07-20T06:36:00;4.03;;;2.55;;
3747;SDS011;1889;50.058;8.688;2023-07-20T06:38:29;3.63;;;2.17;;
3747;SDS011;1889;50.058;8.688;2023-07-20T06:40:58;5.27;;;2.40;;
3747;SDS011;1889;50.058;8.688;2023-07-20T06:43:27;5.15;;;2.15;;
3747;SDS011;1889;50.058;8.688;2023-07-20T06:45:57;4.22;;;2.27;;
3747;SDS011;1889;50.058;8.688;2023-07-20T06:48:26;3.77;;;1.73;;
3747;SDS011;1889;50.058;8.688;2023-07-20T06:50:55;7.47;;;2.40;;
3747;SDS011;1889;50.058;8.688;2023-07-20T06:53:24;5.13;;;2.20;;
3747;SDS011;1889;50.058;8.688;2023-07-20T06:55:53;3.90;;;2.47;;
3747;SDS011;1889;50.058;8.688;2023-07-20T06:58:24;4.57;;;2.43;;
3747;SDS011;1889;50.058;8.688;2023-07-20T07:00:53;5.13;;;2.60;;
3747;SDS011;1889;50.058;8.688;2023-07-20T07:03:22;3.87;;;2.42;;
3747;SDS011;1889;50.058;8.688;2023-07-20T07:05:54;5.35;;;1.77;;
3747;SDS011;1889;50.058;8.688;2023-07-20T07:08:23;4.77;;;2.40;;
3747;SDS011;1889;50.058;8.688;2023-07-20T07:10:53;7.12;;;2.27;;
3747;SDS011;1889;50.058;8.688;2023-07-20T07:13:22;3.90;;;2.15;;
3747;SDS011;1889;50.058;8.688;2023-07-20T07:15:52;6.93;;;2.23;;
3747;SDS011;1889;50.058;8.688;2023-07-20T07:18:21;2.73;;;2.20;;
3747;SDS011;1889;50.058;8.688;2023-07-20T07:20:52;4.83;;;2.57;;
3747;SDS011;1889;50.058;8.688;2023-07-20T07:23:21;3.23;;;2.23;;
3747;SDS011;1889;50.058;8.688;2023-07-20T07:25:50;6.73;;;2.50;;
3747;SDS011;1889;50.058;8.688;2023-07-20T07:28:19;2.90;;;2.30;;
3747;SDS011;1889;50.058;8.688;2023-07-20T07:30:48;3.40;;;2.10;;
3747;SDS011;1889;50.058;8.688;2023-07-20T07:33:17;4.17;;;2.27;;
3747;SDS011;1889;50.058;8.688;2023-07-20T07:35:46;3.40;;;2.40;;
3747;SDS011;1889;50.058;8.688;2023-07-20T07:38:16;4.77;;;2.43;;
3747;SDS011;1889;50.058;8.688;2023-07-20T07:40:45;5.00;;;2.17;;
3747;SDS011;1889;50.058;8.688;2023-07-20T07:43:14;4.57;;;2.30;;
3747;SDS011;1889;50.058;8.688;2023-07-20T07:45:43;2.98;;;2.42;;
3747;SDS011;1889;50.058;8.688;2023-07-20T07:48:13;2.97;;;2.57;;
3747;SDS011;1889;50.058;8.688;2023-07-20T07:50:42;4.17;;;2.50;;
3747;SDS011;1889;50.058;8.688;2023-07-20T07:53:11;3.83;;;2.50;;
3747;SDS011;1889;50.058;8.688;2023-07-20T07:55:40;5.80;;;2.63;;
3747;SDS011;1889;50.058;8.688;2023-07-20T07:58:09;6.17;;;3.20;;
3747;SDS011;1889;50.058;8.688;2023-07-20T08:00:38;4.53;;;2.55;;
3747;SDS011;1889;50.058;8.688;2023-07-20T08:03:07;3.43;;;2.30;;
3747;SDS011;1889;50.058;8.688;2023-07-20T08:05:36;6.60;;;3.70;;
3747;SDS011;1889;50.058;8.688;2023-07-20T08:08:06;3.80;;;2.67;;
3747;SDS011;1889;50.058;8.688;2023-07-20T08:10:36;3.37;;;2.60;;
3747;SDS011;1889;50.058;8.688;2023-07-20T08:13:05;4.10;;;2.80;;
3747;SDS011;1889;50.058;8.688;2023-07-20T08:15:34;3.03;;;2.10;;
3747;SDS011;1889;50.058;8.688;2023-07-20T08:18:03;3.70;;;2.30;;
3747;SDS011;1889;50.058;8.688;2023-07-20T08:20:32;3.23;;;2.10;;
3747;SDS011;1889;50.058;8.688;2023-07-20T08:23:03;6.37;;;3.40;;
3747;SDS011;1889;50.058;8.688;2023-07-20T08:25:32;3.90;;;2.70;;
3747;SDS011;1889;50.058;8.688;2023-07-20T08:28:01;4.23;;;2.60;;
3747;SDS011;1889;50.058;8.688;2023-07-20T08:30:39;4.03;;;2.40;;
3747;SDS011;1889;50.058;8.688;2023-07-20T08:33:13;3.17;;;2.20;;
3747;SDS011;1889;50.058;8.688;2023-07-20T08:35:42;3.27;;;2.30;;
3747;SDS011;1889;50.058;8.688;2023-07-20T08:38:11;2.93;;;2.50;;
3747;SDS011;1889;50.058;8.688;2023-07-20T08:40:41;2.70;;;2.50;;
3747;SDS011;1889;50.058;8.688;2023-07-20T08:43:12;3.37;;;2.10;;
3747;SDS011;1889;50.058;8.688;2023-07-20T08:45:45;3.63;;;2.90;;
3747;SDS011;1889;50.058;8.688;2023-07-20T08:48:16;2.50;;;2.30;;
3747;SDS011;1889;50.058;8.688;2023-07-20T08:50:53;2.47;;;1.90;;
3747;SDS011;1889;50.058;8.688;2023-07-20T08:53:20;3.37;;;2.30;;
3747;SDS011;1889;50.058;8.688;2023-07-20T08:55:50;3.93;;;2.40;;
3747;SDS011;1889;50.058;8.688;2023-07-20T08:58:23;2.77;;;1.93;;
3747;SDS011;1889;50.058;8.688;2023-07-20T09:00:53;3.30;;;2.20;;
3747;SDS011;1889;50.058;8.688;2023-07-20T09:03:23;2.40;;;2.20;;
3747;SDS011;1889;50.058;8.688;2023-07-20T09:05:52;3.53;;;2.20;;
3747;SDS011;1889;50.058;8.688;2023-07-20T09:08:22;3.60;;;2.40;;
3747;SDS011;1889;50.058;8.688;2023-07-20T09:10:51;4.00;;;2.57;;
3747;SDS011;1889;50.058;8.688;2023-07-20T09:13:20;5.03;;;1.97;;
3747;SDS011;1889;50.058;8.688;2023-07-20T09:16:00;3.47;;;2.13;;
3747;SDS011;1889;50.058;8.688;2023-07-20T09:18:26;2.63;;;2.00;;
3747;SDS011;1889;50.058;8.688;2023-07-20T09:21:06;3.93;;;1.93;;
3747;SDS011;1889;50.058;8.688;2023-07-20T09:23:31;8.70;;;1.97;;
3747;SDS011;1889;50.058;8.688;2023-07-20T09:26:10;3.67;;;2.00;;
3747;SDS011;1889;50.058;8.688;2023-07-20T09:28:51;2.13;;;1.73;;
3747;SDS011;1889;50.058;8.688;2023-07-20T09:31:22;4.60;;;2.50;;
3747;SDS011;1889;50.058;8.688;2023-07-20T09:33:52;2.70;;;1.60;;
3747;SDS011;1889;50.058;8.688;2023-07-20T09:36:21;5.57;;;2.33;;
3747;SDS011;1889;50.058;8.688;2023-07-20T09:38:50;2.77;;;2.13;;
3747;SDS011;1889;50.058;8.688;2023-07-20T09:41:20;2.77;;;2.10;;
3747;SDS011;1889;50.058;8.688;2023-07-20T09:43:49;3.97;;;2.20;;
3747;SDS011;1889;50.058;8.688;2023-07-20T09:46:19;2.40;;;1.83;;
3747;SDS011;1889;50.058;8.688;2023-07-20T09:48:57;2.80;;;2.23;;
3747;SDS011;1889;50.058;8.688;2023-07-20T09:51:22;1.80;;;1.70;;
3747;SDS011;1889;50.058;8.688;2023-07-20T09:53:52;4.07;;;2.27;;
3747;SDS011;1889;50.058;8.688;2023-07-20T09:56:22;3.70;;;2.10;;
3747;SDS011;1889;50.058;8.688;2023-07-20T09:58:52;4.57;;;2.00;;
3747;SDS011;1889;50.058;8.688;2023-07-20T10:01:21;2.30;;;2.10;;
3747;SDS011;1889;50.058;8.688;2023-07-20T10:03:51;2.70;;;2.00;;
3747;SDS011;1889;50.058;8.688;2023-07-20T10:06:24;3.20;;;2.00;;
3747;SDS011;1889;50.058;8.688;2023-07-20T10:08:55;2.53;;;2.33;;
3747;SDS011;1889;50.058;8.688;2023-07-20T10:11:26;4.27;;;1.93;;
3747;SDS011;1889;50.058;8.688;2023-07-20T10:13:58;2.40;;;1.90;;
3747;SDS011;1889;50.058;8.688;2023-07-20T10:16:31;3.23;;;2.13;;
3747;SDS011;1889;50.058;8.688;2023-07-20T10:19:07;4.27;;;2.10;;
3747;SDS011;1889;50.058;8.688;2023-07-20T10:21:46;3.13;;;2.10;;
3747;SDS011;1889;50.058;8.688;2023-07-20T10:24:16;2.30;;;2.10;;
3747;SDS011;1889;50.058;8.688;2023-07-20T10:26:45;5.10;;;2.17;;
3747;SDS011;1889;50.058;8.688;2023-07-20T10:29:14;3.13;;;2.00;;
3747;SDS011;1889;50.058;8.688;2023-07-20T10:31:44;2.40;;;2.07;;
3747;SDS011;1889;50.058;8.688;2023-07-20T10:34:13;2.10;;;1.90;;
3747;SDS011;1889;50.058;8.688;2023-07-20T10:36:45;2.97;;;2.30;;
3747;SDS011;1889;50.058;8.688;2023-07-20T10:39:30;7.50;;;2.43;;
3747;SDS011;1889;50.058;8.688;2023-07-20T10:42:00;4.30;;;2.20;;
3747;SDS011;1889;50.058;8.688;2023-07-20T10:44:39;4.70;;;1.90;;
3747;SDS011;1889;50.058;8.688;2023-07-20T10:47:09;3.73;;;2.10;;
3747;SDS011;1889;50.058;8.688;2023-07-20T10:49:58;3.50;;;2.30;;
3747;SDS011;1889;50.058;8.688;2023-07-20T10:52:39;6.23;;;2.17;;
3747;SDS011;1889;50.058;8.688;2023-07-20T10:55:11;3.73;;;2.40;;
3747;SDS011;1889;50.058;8.688;2023-07-20T10:57:43;2.17;;;1.97;;
3747;SDS011;1889;50.058;8.688;2023-07-20T11:00:18;3.83;;;1.80;;
3747;SDS011;1889;50.058;8.688;2023-07-20T11:02:49;2.87;;;2.07;;
3747;SDS011;1889;50.058;8.688;2023-07-20T11:05:35;4.30;;;2.03;;
3747;SDS011;1889;50.058;8.688;2023-07-20T11:08:04;3.00;;;1.90;;
3747;SDS011;1889;50.058;8.688;2023-07-20T11:10:34;6.63;;;2.40;;
3747;SDS011;1889;50.058;8.688;2023-07-20T11:13:22;4.43;;;1.83;;
3747;SDS011;1889;50.058;8.688;2023-07-20T11:18:30;5.20;;;2.77;;
3747;SDS011;1889;50.058;8.688;2023-07-20T11:21:03;2.00;;;1.80;;
3747;SDS011;1889;50.058;8.688;2023-07-20T11:23:37;2.20;;;2.00;;
3747;SDS011;1889;50.058;8.688;2023-07-20T11:26:07;7.87;;;2.57;;
3747;SDS011;1889;50.058;8.688;2023-07-20T11:28:37;5.17;;;2.13;;
3747;SDS011;1889;50.058;8.688;2023-07-20T11:31:06;2.07;;;1.70;;
3747;SDS011;1889;50.058;8.688;2023-07-20T11:33:35;2.13;;;1.93;;
3747;SDS011;1889;50.058;8.688;2023-07-20T11:36:04;1.80;;;1.70;;
3747;SDS011;1889;50.058;8.688;2023-07-20T11:38:33;2.47;;;1.83;;
3747;SDS011;1889;50.058;8.688;2023-07-20T11:41:03;3.07;;;1.70;;
3747;SDS011;1889;50.058;8.688;2023-07-20T11:43:32;3.73;;;1.90;;
3747;SDS011;1889;50.058;8.688;2023-07-20T11:46:01;3.33;;;1.90;;
3747;SDS011;1889;50.058;8.688;2023-07-20T11:48:32;3.37;;;2.10;;
3747;SDS011;1889;50.058;8.688;2023-07-20T11:51:01;5.30;;;2.20;;
3747;SDS011;1889;50.058;8.688;2023-07-20T11:53:30;3.13;;;2.40;;
3747;SDS011;1889;50.058;8.688;2023-07-20T11:56:02;2.43;;;1.90;;
3747;SDS011;1889;50.058;8.688;2023-07-20T11:58:32;2.73;;;2.13;;
3747;SDS011;1889;50.058;8.688;2023-07-20T12:01:01;4.53;;;1.90;;
3747;SDS011;1889;50.058;8.688;2023-07-20T12:03:31;3.60;;;1.70;;
3747;SDS011;1889;50.058;8.688;2023-07-20T12:06:12;2.17;;;1.87;;
3747;SDS011;1889;50.058;8.688;2023-07-20T12:08:39;2.67;;;1.80;;
3747;SDS011;1889;50.058;8.688;2023-07-20T12:11:10;2.17;;;1.97;;
3747;SDS011;1889;50.058;8.688;2023-07-20T12:13:41;2.53;;;2.00;;
3747;SDS011;1889;50.058;8.688;2023-07-20T12:16:15;4.10;;;1.80;;
3747;SDS011;1889;50.058;8.688;2023-07-20T12:18:44;3.33;;;2.33;;
3747;SDS011;1889;50.058;8.688;2023-07-20T12:21:13;2.47;;;1.60;;
3747;SDS011;1889;50.058;8.688;2023-07-20T12:23:42;3.67;;;1.97;;
3747;SDS011;1889;50.058;8.688;2023-07-20T12:26:12;2.60;;;2.00;;
3747;SDS011;1889;50.058;8.688;2023-07-20T12:28:42;3.40;;;1.77;;
3747;SDS011;1889;50.058;8.688;2023-07-20T12:31:12;2.33;;;1.80;;
3747;SDS011;1889;50.058;8.688;2023-07-20T12:33:41;4.67;;;2.00;;
3747;SDS011;1889;50.058;8.688;2023-07-20T12:36:10;2.30;;;2.10;;
3747;SDS011;1889;50.058;8.688;2023-07-20T12:38:39;3.63;;;1.73;;
3747;SDS011;1889;50.058;8.688;2023-07-20T12:41:10;2.13;;;1.90;;
3747;SDS011;1889;50.058;8.688;2023-07-20T12:43:40;3.77;;;1.73;;
3747;SDS011;1889;50.058;8.688;2023-07-20T12:46:10;2.93;;;2.00;;
3747;SDS011;1889;50.058;8.688;2023-07-20T12:48:40;3.27;;;1.97;;
3747;SDS011;1889;50.058;8.688;2023-07-20T12:51:11;3.20;;;1.80;;
3747;SDS011;1889;50.058;8.688;2023-07-20T12:53:40;2.17;;;1.83;;
3747;SDS011;1889;50.058;8.688;2023-07-20T12:56:09;2.93;;;1.53;;
3747;SDS011;1889;50.058;8.688;2023-07-20T12:58:38;1.77;;;1.47;;
3747;SDS011;1889;50.058;8.688;2023-07-20T13:01:07;2.17;;;1.97;;
3747;SDS011;1889;50.058;8.688;2023-07-20T13:03:36;2.47;;;1.53;;
3747;SDS011;1889;50.058;8.688;2023-07-20T13:06:05;1.90;;;1.60;;
3747;SDS011;1889;50.058;8.688;2023-07-20T13:08:34;2.70;;;1.40;;
3747;SDS011;1889;50.058;8.688;2023-07-20T13:11:04;1.90;;;1.50;;
3747;SDS011;1889;50.058;8.688;2023-07-20T13:13:33;1.80;;;1.70;;
3747;SDS011;1889;50.058;8.688;2023-07-20T13:16:02;1.73;;;1.57;;
3747;SDS011;1889;50.058;8.688;2023-07-20T13:18:31;1.83;;;1.50;;
3747;SDS011;1889;50.058;8.688;2023-07-20T13:21:00;2.37;;;1.30;;
3747;SDS011;1889;50.058;8.688;2023-07-20T13:23:30;2.47;;;1.50;;
3747;SDS011;1889;50.058;8.688;2023-07-20T13:25:59;2.63;;;1.70;;
3747;SDS011;1889;50.058;8.688;2023-07-20T13:28:28;4.17;;;1.93;;
3747;SDS011;1889;50.058;8.688;2023-07-20T13:30:57;1.60;;;1.43;;
3747;SDS011;1889;50.058;8.688;2023-07-20T13:33:26;1.87;;;1.50;;
3747;SDS011;1889;50.058;8.688;2023-07-20T13:35:56;1.60;;;1.50;;
3747;SDS011;1889;50.058;8.688;2023-07-20T13:38:25;2.77;;;2.20;;
3747;SDS011;1889;50.058;8.688;2023-07-20T13:40:54;3.60;;;1.70;;
3747;SDS011;1889;50.058;8.688;2023-07-20T13:43:23;3.53;;;1.60;;
3747;SDS011;1889;50.058;8.688;2023-07-20T13:45:52;1.73;;;1.50;;
3747;SDS011;1889;50.058;8.688;2023-07-20T13:48:21;2.60;;;1.60;;
3747;SDS011;1889;50.058;8.688;2023-07-20T13:50:50;1.70;;;1.50;;
3747;SDS011;1889;50.058;8.688;2023-07-20T13:53:20;3.00;;;1.60;;
3747;SDS011;1889;50.058;8.688;2023-07-20T13:55:49;1.70;;;1.50;;
3747;SDS011;1889;50.058;8.688;2023-07-20T13:58:19;1.60;;;1.47;;
3747;SDS011;1889;50.058;8.688;2023-07-20T14:00:49;1.47;;;1.37;;
3747;SDS011;1889;50.058;8.688;2023-07-20T14:03:22;2.17;;;1.30;;
3747;SDS011;1889;50.058;8.688;2023-07-20T14:05:52;2.10;;;1.40;;
3747;SDS011;1889;50.058;8.688;2023-07-20T14:10:57;1.83;;;1.30;;
3747;SDS011;1889;50.058;8.688;2023-07-20T14:13:27;2.00;;;1.43;;
3747;SDS011;1889;50.058;8.688;2023-07-20T14:16:02;2.63;;;1.60;;
3747;SDS011;1889;50.058;8.688;2023-07-20T14:18:27;2.57;;;1.70;;
3747;SDS011;1889;50.058;8.688;2023-07-20T14:20:56;1.57;;;1.37;;
3747;SDS011;1889;50.058;8.688;2023-07-20T14:23:26;2.00;;;1.37;;
3747;SDS011;1889;50.058;8.688;2023-07-20T14:25:55;2.00;;;1.60;;
3747;SDS011;1889;50.058;8.688;2023-07-20T14:28:47;2.07;;;1.40;;
3747;SDS011;1889;50.058;8.688;2023-07-20T14:31:16;1.23;;;1.10;;
3747;SDS011;1889;50.058;8.688;2023-07-20T14:33:47;2.13;;;1.50;;
3747;SDS011;1889;50.058;8.688;2023-07-20T14:36:19;1.97;;;1.77;;
3747;SDS011;1889;50.058;8.688;2023-07-20T14:38:50;2.43;;;1.23;;
3747;SDS011;1889;50.058;8.688;2023-07-20T14:41:19;1.67;;;1.50;;
3747;SDS011;1889;50.058;8.688;2023-07-20T14:43:54;2.00;;;1.30;;
3747;SDS011;1889;50.058;8.688;2023-07-20T14:46:24;2.03;;;1.50;;
3747;SDS011;1889;50.058;8.688;2023-07-20T14:48:59;3.53;;;1.70;;
3747;SDS011;1889;50.058;8.688;2023-07-20T14:51:29;1.60;;;1.30;;
3747;SDS011;1889;50.058;8.688;2023-07-20T14:54:03;1.60;;;1.40;;
3747;SDS011;1889;50.058;8.688;2023-07-20T14:56:34;1.40;;;1.30;;
3747;SDS011;1889;50.058;8.688;2023-07-20T14:59:05;3.53;;;1.70;;
3747;SDS011;1889;50.058;8.688;2023-07-20T15:01:34;1.40;;;1.30;;
3747;SDS011;1889;50.058;8.688;2023-07-20T15:04:03;2.33;;;1.63;;
3747;SDS011;1889;50.058;8.688;2023-07-20T15:06:33;3.37;;;1.37;;
3747;SDS011;1889;50.058;8.688;2023-07-20T15:09:05;4.63;;;1.40;;
3747;SDS011;1889;50.058;8.688;2023-07-20T15:11:35;2.07;;;1.57;;
3747;SDS011;1889;50.058;8.688;2023-07-20T15:14:04;2.33;;;1.33;;
3747;SDS011;1889;50.058;8.688;2023-07-20T15:16:34;1.90;;;1.30;;
3747;SDS011;1889;50.058;8.688;2023-07-20T15:19:04;1.60;;;1.10;;
3747;SDS011;1889;50.058;8.688;2023-07-20T15:21:34;3.60;;;1.30;;
3747;SDS011;1889;50.058;8.688;2023-07-20T15:24:03;1.63;;;1.30;;
3747;SDS011;1889;50.058;8.688;2023-07-20T15:26:33;2.50;;;1.23;;
3747;SDS011;1889;50.058;8.688;2023-07-20T15:29:02;2.07;;;1.30;;
3747;SDS011;1889;50.058;8.688;2023-07-20T15:31:31;1.93;;;1.40;;
3747;SDS011;1889;50.058;8.688;2023-07-20T15:34:00;1.63;;;1.50;;
3747;SDS011;1889;50.058;8.688;2023-07-20T15:36:29;1.47;;;1.30;;
3747;SDS011;1889;50.058;8.688;2023-07-20T15:38:58;1.30;;;1.20;;
3747;SDS011;1889;50.058;8.688;2023-07-20T15:41:27;1.53;;;1.43;;
3747;SDS011;1889;50.058;8.688;2023-07-20T15:43:56;1.53;;;1.43;;
3747;SDS011;1889;50.058;8.688;2023-07-20T15:49:04;1.73;;;1.20;;